createdAt,value
2023-06-18T03:42:06.005Z,47.68
2023-06-18T04:35:07.530Z,45.66
2023-06-18T04:38:57.185Z,44.91
2023-06-18T07:56:10.936Z,73.56
2023-06-18T07:59:14.794Z,74.32
2023-06-18T08:03:23.312Z,75.62
2023-06-18T08:06:29.861Z,76.13
2023-06-18T08:31:04.859Z,75.65
2023-06-18T08:34:15.296Z,76.46
2023-06-18T08:38:08.594Z,75.77
2023-06-18T08:42:04.501Z,75.44
2023-06-18T08:45:09.389Z,74.25
2023-06-18T08:48:27.299Z,73.98
2023-06-18T08:51:33.949Z,73.17
2023-06-18T08:54:39.981Z,74.49
2023-06-18T08:58:13.764Z,73.89
2023-06-18T09:01:20.439Z,74.49
2023-06-18T09:04:26.796Z,74.58
2023-06-18T09:07:30.602Z,74.61
2023-06-18T09:10:34.714Z,74.96
2023-06-18T09:13:43.437Z,74.61
2023-06-18T09:16:47.133Z,75.31
2023-06-18T09:19:52.391Z,75.32
2023-06-18T09:22:56.053Z,76.14
2023-06-18T09:26:16.394Z,75.66
2023-06-18T09:29:33.148Z,75.40
2023-06-18T09:32:51.044Z,75.26
2023-06-18T09:36:08.565Z,75.84
2023-06-18T09:44:34.689Z,76.30
2023-06-18T09:47:43.596Z,76.50
2023-06-18T09:50:59.974Z,76.06
2023-06-18T09:55:19.722Z,75.73
2023-06-18T09:59:16.137Z,76.53
2023-06-18T10:02:27.220Z,76.84
2023-06-18T10:09:51.298Z,77.25
2023-06-18T10:13:01.226Z,76.74
2023-06-18T10:16:35.857Z,77.02
2023-06-18T10:19:50.159Z,76.06
2023-06-18T10:23:02.330Z,75.93
2023-06-18T10:27:12.443Z,75.92
2023-06-18T10:36:11.334Z,75.69
2023-06-18T10:44:48.751Z,75.60
2023-06-18T10:52:54.232Z,74.41
2023-06-18T10:56:06.880Z,74.86
2023-06-18T11:59:01.672Z,77.57
2023-06-18T12:05:55.215Z,77.82
2023-06-18T12:09:09.631Z,77.85
2023-06-18T12:13:17.759Z,77.99
2023-06-18T12:16:51.052Z,77.60
2023-06-18T12:21:00.606Z,77.60
2023-06-18T12:27:37.398Z,77.90
2023-06-18T12:31:59.935Z,77.44
2023-06-18T12:35:47.571Z,76.73
2023-06-18T12:39:38.397Z,77.26
2023-06-18T12:42:58.998Z,76.92
2023-06-18T12:46:38.992Z,76.05
2023-06-18T12:54:04.702Z,75.55
2023-06-18T12:57:32.709Z,75.76
2023-06-18T13:05:46.825Z,74.23
2023-06-18T13:13:29.186Z,74.47
2023-06-18T13:16:36.071Z,75.16
2023-06-18T13:19:59.615Z,75.91
2023-06-18T13:23:14.386Z,76.61
2023-06-18T13:26:20.619Z,76.36
2023-06-18T13:29:44.768Z,76.80
2023-06-18T13:32:49.438Z,76.60
2023-06-18T13:36:25.512Z,76.60
2023-06-18T13:40:22.818Z,76.58
2023-06-18T13:52:02.582Z,76.77
2023-06-18T13:55:07.620Z,76.05
2023-06-18T13:58:14.146Z,74.92
2023-06-18T14:00:07.536Z,76.60
2023-06-18T14:01:25.147Z,74.80
2023-06-18T14:04:28.913Z,71.65
2023-06-18T14:07:35.381Z,72.27
2023-06-18T14:10:41.603Z,72.12
2023-06-18T14:13:46.207Z,72.45
2023-06-18T14:16:49.838Z,72.32
2023-06-18T14:19:53.643Z,72.09
2023-06-18T14:22:57.711Z,72.21
2023-06-18T14:26:01.309Z,72.43
2023-06-18T14:29:05.337Z,72.28
2023-06-18T14:32:12.193Z,71.90
2023-06-18T14:35:15.751Z,72.29
2023-06-18T14:38:24.885Z,72.48
2023-06-18T14:41:29.063Z,72.37
2023-06-18T14:44:32.612Z,72.69
2023-06-18T14:47:37.125Z,72.73
2023-06-18T14:50:42.866Z,72.86
2023-06-18T14:53:52.753Z,73.04
2023-06-18T14:56:56.385Z,71.88
2023-06-18T15:00:00.512Z,71.64
2023-06-18T15:03:04.071Z,71.64
2023-06-18T15:06:07.656Z,71.06
2023-06-18T15:09:11.225Z,70.77
2023-06-18T15:12:14.680Z,70.59
2023-06-18T15:15:18.506Z,70.89
2023-06-18T15:18:22.695Z,70.13
2023-06-18T15:21:26.260Z,70.43
2023-06-18T15:24:31.667Z,70.67
2023-06-18T15:27:37.040Z,70.95
2023-06-18T15:30:40.563Z,71.06
2023-06-18T15:33:44.491Z,70.60
2023-06-18T15:36:48.012Z,70.32
2023-06-18T15:39:51.572Z,70.01
2023-06-18T15:42:55.122Z,70.05
2023-06-18T15:45:58.699Z,70.27
2023-06-18T15:49:02.559Z,70.35
2023-06-18T15:52:06.823Z,71.03
2023-06-18T15:55:11.303Z,72.00
2023-06-18T15:58:15.123Z,71.43
2023-06-18T16:01:18.677Z,71.76
2023-06-18T16:04:22.511Z,72.03
2023-06-18T16:07:25.983Z,72.33
2023-06-18T16:10:29.549Z,72.01
2023-06-18T16:13:33.074Z,72.23
2023-06-18T16:16:36.963Z,71.89
2023-06-18T16:19:40.597Z,72.19
2023-06-18T16:22:45.915Z,72.09
2023-06-18T16:25:49.508Z,71.72
2023-06-18T16:28:54.240Z,72.24
2023-06-18T16:31:57.786Z,71.89
2023-06-18T16:35:02.674Z,72.19
2023-06-18T16:38:06.265Z,72.33
2023-06-18T16:41:09.916Z,72.67
2023-06-18T16:44:13.446Z,72.27
2023-06-18T16:47:17.131Z,71.82
2023-06-18T16:50:20.640Z,72.09
2023-06-18T16:53:24.170Z,71.48
2023-06-18T16:56:27.793Z,71.77
2023-06-18T16:59:31.354Z,71.28
2023-06-18T17:02:35.032Z,70.70
2023-06-18T17:05:39.327Z,70.43
2023-06-18T17:08:42.830Z,70.84
2023-06-18T17:11:46.432Z,70.70
2023-06-18T17:14:49.895Z,70.49
2023-06-18T17:17:53.486Z,70.79
2023-06-18T17:20:58.464Z,70.73
2023-06-18T17:24:03.950Z,70.69
2023-06-18T17:27:10.516Z,70.89
2023-06-18T17:30:14.216Z,71.18
2023-06-18T17:33:17.693Z,71.30
2023-06-18T17:36:22.525Z,70.97
2023-06-18T17:39:26.047Z,70.98
2023-06-18T17:42:29.549Z,71.17
2023-06-18T17:45:33.003Z,71.80
2023-06-18T17:48:36.768Z,71.84
2023-06-18T17:51:40.328Z,72.02
2023-06-18T17:54:43.854Z,72.37
2023-06-18T17:57:47.402Z,72.05
2023-06-18T18:00:58.173Z,72.88
2023-06-18T18:04:01.857Z,72.71
2023-06-18T18:07:05.842Z,72.79
2023-06-18T18:10:09.977Z,73.00
2023-06-18T18:13:13.649Z,73.43
2023-06-18T18:16:17.608Z,73.68
2023-06-18T18:19:21.867Z,73.80
2023-06-18T18:22:25.436Z,73.98
2023-06-18T18:25:28.914Z,73.82
2023-06-18T18:28:32.452Z,73.78
2023-06-18T18:31:35.995Z,73.79
2023-06-18T18:34:39.532Z,73.94
2023-06-18T18:37:43.166Z,73.82
2023-06-18T18:40:47.618Z,74.10
2023-06-18T18:43:51.186Z,74.17
2023-06-18T18:46:54.652Z,74.02
2023-06-18T18:49:58.259Z,74.28
2023-06-18T18:53:01.825Z,73.97
2023-06-18T18:56:05.416Z,73.91
2023-06-18T18:59:09.745Z,73.15
2023-06-18T19:02:15.263Z,73.35
2023-06-18T19:05:18.820Z,73.32
2023-06-18T19:08:22.820Z,73.05
2023-06-18T19:11:26.565Z,73.13
2023-06-18T19:14:31.063Z,72.97
2023-06-18T19:17:34.609Z,73.43
2023-06-18T19:20:38.306Z,73.31
2023-06-18T19:23:41.818Z,73.61
2023-06-18T19:26:45.275Z,73.90
2023-06-18T19:29:48.791Z,74.19
2023-06-18T19:32:53.705Z,74.47
2023-06-18T19:35:57.233Z,74.62
2023-06-18T19:39:02.010Z,74.58
2023-06-18T19:42:07.106Z,74.84
2023-06-18T19:45:12.816Z,74.83
2023-06-18T19:48:17.751Z,74.99
2023-06-18T19:51:21.351Z,75.43
2023-06-18T19:54:25.192Z,75.44
2023-06-18T19:57:28.642Z,75.44
2023-06-18T20:00:35.413Z,75.42
2023-06-18T20:03:40.380Z,75.46
2023-06-18T20:06:43.965Z,75.22
2023-06-18T20:09:47.480Z,75.16
2023-06-18T20:12:51.089Z,75.20
2023-06-18T20:15:54.553Z,75.54
2023-06-18T20:18:58.562Z,75.52
2023-06-18T20:22:02.115Z,75.67
2023-06-18T20:25:05.996Z,75.55
2023-06-18T20:28:11.656Z,76.26
2023-06-18T20:31:15.222Z,76.04
2023-06-18T20:34:18.781Z,76.10
2023-06-18T20:37:22.428Z,76.16
2023-06-18T20:40:26.186Z,75.95
2023-06-18T20:43:29.743Z,75.85
2023-06-18T20:46:33.379Z,75.75
2023-06-18T20:49:37.041Z,75.55
2023-06-18T20:52:40.598Z,75.70
2023-06-18T20:55:44.159Z,75.74
2023-06-18T20:58:47.679Z,76.01
2023-06-18T21:01:53.318Z,75.95
2023-06-18T21:04:56.774Z,76.10
2023-06-18T21:08:00.301Z,75.85
2023-06-18T21:11:03.937Z,75.53
2023-06-18T21:14:07.448Z,74.96
2023-06-18T21:17:12.136Z,74.66
2023-06-18T21:20:15.774Z,74.38
2023-06-18T21:23:19.334Z,73.16
2023-06-18T21:26:23.046Z,72.49
2023-06-18T21:29:27.359Z,72.17
2023-06-18T21:32:30.901Z,72.14
2023-06-18T21:35:34.567Z,71.73
2023-06-18T21:38:38.141Z,71.41
2023-06-18T21:41:41.653Z,70.81
2023-06-18T21:44:45.241Z,70.50
2023-06-18T21:47:48.976Z,71.02
2023-06-18T21:50:52.487Z,71.03
2023-06-18T21:53:56.091Z,71.05
2023-06-18T21:56:59.542Z,70.26
2023-06-18T22:00:03.207Z,70.08
2023-06-18T22:03:13.711Z,69.72
2023-06-18T22:06:17.278Z,69.07
2023-06-18T22:09:22.926Z,68.16
2023-06-18T22:12:26.431Z,67.79
2023-06-18T22:15:30.052Z,67.46
2023-06-18T22:18:33.591Z,66.58
2023-06-18T22:21:37.078Z,64.93
2023-06-18T22:24:40.698Z,64.27
2023-06-18T22:27:44.763Z,61.99
2023-06-18T22:30:48.265Z,58.33
2023-06-18T22:33:52.090Z,55.54
2023-06-18T22:36:55.843Z,52.48
2023-06-18T22:40:03.184Z,50.67
2023-06-18T22:43:07.201Z,50.06
2023-06-18T22:46:10.830Z,50.07
2023-06-18T22:49:15.404Z,48.95
2023-06-18T22:52:18.985Z,47.97
2023-06-18T22:55:22.518Z,45.89
2023-06-18T22:58:25.998Z,42.81
2023-06-18T23:01:30.717Z,38.79
2023-06-18T23:04:34.243Z,36.59
2023-06-18T23:07:38.055Z,35.89
2023-06-18T23:10:41.432Z,34.75
2023-06-18T23:13:44.964Z,33.15
2023-06-18T23:16:49.092Z,32.67
2023-06-18T23:19:53.993Z,31.96
2023-06-18T23:22:57.539Z,31.93
2023-06-18T23:26:01.026Z,31.69
2023-06-18T23:29:04.721Z,31.02
2023-06-18T23:32:09.140Z,30.32
2023-06-18T23:35:13.237Z,29.94
2023-06-18T23:38:16.899Z,29.78
2023-06-18T23:41:20.308Z,29.46
2023-06-18T23:44:23.770Z,29.67
2023-06-18T23:47:27.294Z,30.70
2023-06-18T23:50:30.801Z,30.88
2023-06-18T23:53:34.262Z,30.97
2023-06-18T23:56:37.663Z,32.20
2023-06-18T23:59:41.318Z,32.53
